Time;durP1;ratioP1;P1;durP2;ratioP2;P2;SDS_P1;SDS_P2;PMS_P1;PMS_P2;Temp;Humidity;BMP_temperature;BMP_pressure;BME280_temperature;BME280_humidity;BME280_pressure;Samples;Min_cycle;Max_cycle;Signal;HPM_P1;HPM_P2
2021/08/07 00:03:39;;;;;;;3.77;1.70;;;;;;;19.21;58.56;97234.84;8315565;28;20264;-65
2021/08/07 00:08:01;;;;;;;2.87;1.53;;;;;;;19.12;58.73;97227.78;8316268;28;20241;-65
2021/08/07 00:12:10;;;;;;;4.63;1.60;;;;;;;19.09;59.08;97225.44;8316647;28;20268;-65
2021/08/07 00:16:20;;;;;;;2.47;1.27;;;;;;;19.08;58.80;97229.03;8316342;28;20559;-64
2021/08/07 00:20:28;;;;;;;3.63;1.60;;;;;;;18.94;58.48;97218.00;8316621;28;20237;-64
2021/08/07 00:24:38;;;;;;;2.43;1.60;;;;;;;18.63;59.68;97216.44;8316384;28;20205;-64
2021/08/07 00:28:47;;;;;;;2.30;1.40;;;;;;;18.81;59.23;97211.34;8316590;28;20251;-64
2021/08/07 00:32:54;;;;;;;2.57;1.37;;;;;;;18.91;59.19;97199.09;8316525;28;20221;-64
2021/08/07 00:37:06;;;;;;;4.37;1.50;;;;;;;18.85;59.24;97195.22;8316227;28;20255;-64
2021/08/07 00:41:14;;;;;;;4.23;1.70;;;;;;;18.85;59.35;97192.59;8316228;28;20229;-64
2021/08/07 00:45:23;;;;;;;5.37;1.60;;;;;;;18.86;59.09;97201.28;8316112;28;20206;-64
2021/08/07 00:49:31;;;;;;;3.00;1.67;;;;;;;18.81;58.96;97201.72;8316028;28;20535;-64
2021/08/07 00:53:40;;;;;;;3.33;1.40;;;;;;;18.71;59.93;97196.41;8315861;28;20197;-64
2021/08/07 00:57:49;;;;;;;5.33;1.90;;;;;;;18.81;59.51;97191.22;8315781;28;20227;-64
2021/08/07 01:02:06;;;;;;;3.67;1.50;;;;;;;18.75;59.12;97191.72;8313740;28;20216;-64
2021/08/07 01:06:35;;;;;;;3.93;1.80;;;;;;;18.78;59.13;97186.22;8314883;28;20403;-64
2021/08/07 01:11:16;;;;;;;4.40;1.77;;;;;;;18.52;59.49;97172.81;8315382;28;20424;-64
2021/08/07 01:15:49;;;;;;;3.43;1.80;;;;;;;18.30;60.14;97166.88;8318219;28;20506;-64
2021/08/07 01:20:26;;;;;;;5.17;1.83;;;;;;;18.29;60.15;97167.00;8321315;28;20423;-64
2021/08/07 01:24:55;;;;;;;4.30;1.73;;;;;;;18.30;60.12;97177.34;8321526;28;20312;-64
2021/08/07 01:29:37;;;;;;;5.40;1.63;;;;;;;18.01;61.25;97179.06;8321260;28;20205;-64
2021/08/07 01:33:58;;;;;;;3.20;1.83;;;;;;;17.98;61.47;97175.75;8319624;28;20224;-64
2021/08/07 01:38:30;;;;;;;4.93;1.80;;;;;;;18.05;61.26;97183.06;8320600;28;20296;-65
2021/08/07 01:42:58;;;;;;;4.23;1.70;;;;;;;18.16;60.86;97178.56;8321065;28;20208;-64
2021/08/07 01:47:19;;;;;;;5.37;1.90;;;;;;;18.10;61.53;97186.13;8319424;28;20477;-64
2021/08/07 01:51:29;;;;;;;3.20;1.70;;;;;;;17.84;61.90;97186.63;8320846;28;20209;-65
2021/08/07 01:55:44;;;;;;;5.87;1.90;;;;;;;18.19;61.38;97195.00;8320141;28;20239;-64
2021/08/07 01:59:55;;;;;;;4.00;1.73;;;;;;;18.25;60.83;97184.78;8320235;28;20229;-64
2021/08/07 02:04:15;;;;;;;3.57;1.70;;;;;;;18.23;60.58;97183.25;8320227;28;20201;-64
2021/08/07 02:08:23;;;;;;;2.13;1.80;;;;;;;18.26;61.30;97185.59;8320528;28;20432;-64
2021/08/07 02:12:35;;;;;;;3.70;2.00;;;;;;;17.95;61.34;97178.66;8319829;28;20201;-64
2021/08/07 02:16:55;;;;;;;4.77;1.93;;;;;;;18.04;61.60;97170.94;8320460;28;20231;-64
2021/08/07 02:21:16;;;;;;;5.33;1.87;;;;;;;18.19;60.90;97171.41;8317745;28;20228;-64
2021/08/07 02:25:33;;;;;;;5.80;1.90;;;;;;;18.14;60.95;97164.78;8318963;28;20205;-64
2021/08/07 02:29:51;;;;;;;3.87;1.83;;;;;;;18.11;61.08;97164.22;8319596;28;20205;-64
2021/08/07 02:34:08;;;;;;;5.53;2.30;;;;;;;18.09;61.33;97159.09;8319616;28;20201;-64
2021/08/07 02:38:42;;;;;;;3.60;1.93;;;;;;;18.13;60.86;97157.88;8319214;28;20202;-64
2021/08/07 02:43:01;;;;;;;6.23;2.60;;;;;;;17.96;61.54;97164.59;8318056;28;20260;-65
2021/08/07 02:47:33;;;;;;;4.37;2.20;;;;;;;17.91;61.57;97168.56;8319082;28;20207;-64
2021/08/07 02:51:49;;;;;;;4.63;2.20;;;;;;;17.89;61.36;97154.78;8319105;28;20209;-64
2021/08/07 02:56:16;;;;;;;6.90;2.60;;;;;;;17.61;62.74;97149.28;8318834;28;20411;-64
2021/08/07 03:00:42;;;;;;;6.47;2.63;;;;;;;17.77;62.15;97149.59;8316254;28;20224;-64
2021/08/07 03:05:03;;;;;;;5.37;2.27;;;;;;;17.65;62.61;97131.50;8318476;28;20500;-64
2021/08/07 03:09:21;;;;;;;3.93;2.10;;;;;;;17.49;63.13;97145.09;8316883;28;20534;-64
2021/08/07 03:13:39;;;;;;;4.80;2.33;;;;;;;17.29;64.00;97134.53;8317904;28;20201;-64
2021/08/07 03:17:50;;;;;;;5.93;2.30;;;;;;;17.32;63.93;97138.66;8317684;28;20233;-64
2021/08/07 03:22:08;;;;;;;5.17;2.30;;;;;;;17.21;64.15;97134.38;8316971;28;20228;-64
2021/08/07 03:26:20;;;;;;;4.97;2.40;;;;;;;17.47;63.45;97128.69;8317361;28;20201;-64
2021/08/07 03:30:52;;;;;;;5.90;2.17;;;;;;;17.25;63.91;97132.28;8315590;28;20243;-64
2021/08/07 03:35:18;;;;;;;9.00;2.33;;;;;;;17.49;63.21;97139.84;8317447;28;20492;-64
2021/08/07 03:39:53;;;;;;;4.70;2.10;;;;;;;17.41;63.26;97140.50;8316892;28;20224;-64
2021/08/07 03:44:15;;;;;;;4.47;2.40;;;;;;;17.47;63.21;97144.41;8317393;28;20228;-64
2021/08/07 03:48:50;;;;;;;5.63;2.50;;;;;;;17.41;63.35;97144.94;8317093;28;20363;-64
2021/08/07 03:53:15;;;;;;;8.20;2.50;;;;;;;17.50;62.90;97144.97;8316193;28;20226;-64
2021/08/07 03:57:43;;;;;;;4.10;2.47;;;;;;;17.47;63.01;97139.16;8316459;28;20228;-64
2021/08/07 04:02:02;;;;;;;4.87;2.60;;;;;;;17.49;63.07;97139.84;8316902;28;20287;-64
2021/08/07 04:06:25;;;;;;;4.23;2.13;;;;;;;17.53;62.67;97142.06;8316928;28;20217;-64
2021/08/07 04:11:00;;;;;;;5.43;2.23;;;;;;;17.63;62.65;97149.13;8315076;28;20221;-64
2021/08/07 04:15:17;;;;;;;5.13;2.50;;;;;;;17.51;63.05;97135.31;8316753;28;20201;-64
2021/08/07 04:19:45;;;;;;;5.33;2.60;;;;;;;17.38;63.14;97141.63;8316326;28;20237;-64
2021/08/07 04:24:16;;;;;;;6.40;2.20;;;;;;;17.17;64.35;97139.03;8317253;28;20209;-64
2021/08/07 04:28:34;;;;;;;9.33;2.83;;;;;;;17.18;64.14;97142.47;8317016;28;20288;-64
2021/08/07 04:32:55;;;;;;;5.87;2.20;;;;;;;17.30;63.76;97137.97;8315909;28;20227;-64
2021/08/07 04:37:29;;;;;;;5.43;2.53;;;;;;;17.34;63.73;97128.91;8316131;28;20391;-64
2021/08/07 04:41:56;;;;;;;4.17;2.30;;;;;;;17.53;63.14;97130.78;8315643;28;20224;-64
2021/08/07 04:46:28;;;;;;;5.63;2.13;;;;;;;17.31;63.63;97123.94;8315983;28;20201;-64
2021/08/07 04:50:57;;;;;;;5.23;2.23;;;;;;;17.30;63.83;97127.50;8321203;28;20212;-64
2021/08/07 04:55:16;;;;;;;3.93;1.93;;;;;;;17.45;63.77;97120.16;8322530;28;20232;-64
2021/08/07 04:59:41;;;;;;;5.43;2.20;;;;;;;17.57;63.41;97117.31;8320439;28;20534;-64
2021/08/07 05:04:20;;;;;;;4.27;2.10;;;;;;;17.57;63.28;97121.69;8323035;28;20401;-63
2021/08/07 05:09:01;;;;;;;6.60;2.57;;;;;;;17.61;63.24;97111.78;8323066;28;20497;-64
2021/08/07 05:13:36;;;;;;;5.30;2.00;;;;;;;17.32;63.93;97117.75;8323023;28;20236;-64
2021/08/07 05:18:07;;;;;;;3.57;1.90;;;;;;;17.36;63.86;97121.75;8321261;28;20287;-64
2021/08/07 05:22:34;;;;;;;3.27;2.20;;;;;;;17.26;64.54;97116.47;8322577;28;20291;-64
2021/08/07 05:26:55;;;;;;;6.93;2.60;;;;;;;17.18;64.89;97116.31;8321224;28;20205;-64
2021/08/07 05:31:27;;;;;;;4.30;2.50;;;;;;;17.27;64.80;97112.91;8319924;28;20208;-64
2021/08/07 05:36:25;;;;;;;5.70;2.50;;;;;;;17.86;63.22;97108.75;8321966;28;20212;-64
2021/08/07 05:40:51;;;;;;;5.20;2.30;;;;;;;17.76;63.31;97106.06;8321757;28;20235;-64
2021/08/07 05:45:16;;;;;;;4.50;2.20;;;;;;;17.87;63.71;97102.53;8322015;28;20240;-64
2021/08/07 05:49:43;;;;;;;7.30;2.67;;;;;;;17.73;63.99;97097.66;8320704;28;20274;-64
2021/08/07 05:54:32;;;;;;;6.70;2.90;;;;;;;17.70;64.01;97098.72;8321323;28;20209;-64
2021/08/07 05:58:57;;;;;;;5.00;2.50;;;;;;;17.96;63.73;97087.81;8321429;28;20201;-64
2021/08/07 06:03:07;;;;;;;5.77;2.50;;;;;;;17.80;63.79;97093.53;8326373;28;20220;-64
2021/08/07 06:07:17;;;;;;;5.07;2.70;;;;;;;17.84;64.73;97094.94;8321738;28;20500;-64
2021/08/07 06:12:00;;;;;;;3.67;2.33;;;;;;;18.14;63.86;97098.44;8318942;28;20268;-64
2021/08/07 06:16:31;;;;;;;4.43;2.43;;;;;;;18.45;62.79;97100.91;8320745;28;20201;-64
2021/08/07 06:20:46;;;;;;;5.97;2.73;;;;;;;18.62;62.90;97086.28;8319206;28;20237;-64
2021/08/07 06:24:54;;;;;;;5.83;2.67;;;;;;;18.82;62.17;97085.31;8312045;28;20193;-64
2021/08/07 06:29:18;;;;;;;5.63;2.30;;;;;;;19.23;61.44;97091.16;8306091;28;20511;-64
2021/08/07 06:33:37;;;;;;;3.87;2.33;;;;;;;18.67;62.29;97098.00;8305365;28;20197;-64
2021/08/07 06:37:58;;;;;;;5.33;2.60;;;;;;;19.32;60.82;97094.69;8302844;28;20201;-64
2021/08/07 06:42:14;;;;;;;8.70;2.63;;;;;;;19.52;61.16;97092.84;8304181;28;20404;-64
2021/08/07 06:46:43;;;;;;;6.77;2.83;;;;;;;19.53;60.64;97095.31;8319014;28;20197;-64
2021/08/07 06:51:19;;;;;;;3.10;2.00;;;;;;;20.16;59.82;97098.16;8319627;28;20213;-64
2021/08/07 06:55:39;;;;;;;4.37;2.17;;;;;;;20.21;58.26;97099.34;8313400;28;20221;-64
2021/08/07 06:59:55;;;;;;;2.77;1.70;;;;;;;20.55;57.95;97103.13;8297394;28;20201;-64
2021/08/07 07:04:20;;;;;;;6.37;2.40;;;;;;;20.76;57.34;97108.09;8287194;28;20502;-65
2021/08/07 07:08:42;;;;;;;3.70;2.30;;;;;;;20.83;56.72;97101.25;8286910;28;20207;-64
2021/08/07 07:12:59;;;;;;;4.37;2.07;;;;;;;20.79;57.21;97092.81;8321949;28;20209;-64
2021/08/07 07:17:17;;;;;;;3.87;1.90;;;;;;;21.32;56.04;97084.91;8349624;28;20202;-64
2021/08/07 07:21:41;;;;;;;3.50;1.80;;;;;;;21.72;54.27;97094.00;8351083;28;20232;-64
2021/08/07 07:26:12;;;;;;;5.37;2.23;;;;;;;21.84;54.00;97079.56;8351254;28;20200;-64
2021/08/07 07:30:22;;;;;;;5.60;2.10;;;;;;;21.91;53.95;97079.72;8328241;28;20211;-63
2021/08/07 07:34:49;;;;;;;3.80;2.07;;;;;;;21.97;54.17;97089.63;8317062;28;20205;-64
2021/08/07 07:39:12;;;;;;;6.80;2.10;;;;;;;21.70;53.95;97091.50;8318617;28;20202;-64
2021/08/07 07:43:39;;;;;;;3.53;1.77;;;;;;;21.71;55.04;97089.72;8316821;28;20408;-64
2021/08/07 07:48:06;;;;;;;6.47;2.17;;;;;;;21.86;54.40;97090.75;8317233;28;20247;-64
2021/08/07 07:52:44;;;;;;;4.93;1.97;;;;;;;21.55;54.86;97096.59;8315303;28;20215;-64
2021/08/07 07:57:26;;;;;;;6.57;2.10;;;;;;;21.46;55.88;97076.47;8284620;28;20220;-64
2021/08/07 08:01:55;;;;;;;4.30;1.70;;;;;;;21.50;54.54;97064.63;8285173;28;20573;-64
2021/08/07 08:06:07;;;;;;;5.20;1.80;;;;;;;22.08;54.28;97056.88;8284367;28;20201;-64
2021/08/07 08:10:29;;;;;;;4.67;1.90;;;;;;;22.80;51.54;97036.75;8285233;28;20396;-64
2021/08/07 08:15:17;;;;;;;5.63;1.93;;;;;;;23.12;50.38;97031.63;8281942;28;20221;-64
2021/08/07 08:19:41;;;;;;;5.97;1.90;;;;;;;23.77;50.32;97030.50;8281166;28;20247;-64
2021/08/07 08:23:58;;;;;;;4.37;1.90;;;;;;;23.86;48.00;97034.78;8283157;28;20248;-64
2021/08/07 08:28:11;;;;;;;4.10;1.77;;;;;;;24.47;47.54;97020.78;8282987;28;20210;-64
2021/08/07 08:32:33;;;;;;;4.57;1.60;;;;;;;24.43;47.00;97017.69;8284934;28;20414;-64
2021/08/07 08:37:04;;;;;;;4.67;1.67;;;;;;;25.02;45.96;97013.47;8284668;28;20209;-64
2021/08/07 08:41:34;;;;;;;7.40;1.90;;;;;;;25.43;43.15;97013.84;8283619;28;20304;-64
2021/08/07 08:46:03;;;;;;;5.57;1.70;;;;;;;25.33;43.88;97016.78;8284613;28;20214;-64
2021/08/07 08:50:39;;;;;;;3.03;1.60;;;;;;;25.63;43.11;97005.34;8284313;28;20206;-64
2021/08/07 08:55:13;;;;;;;3.43;1.47;;;;;;;25.81;43.52;97018.97;8298153;28;20553;-65
2021/08/07 08:59:40;;;;;;;4.77;1.60;;;;;;;25.77;42.40;97023.00;8316537;28;20205;-64
2021/08/07 09:04:04;;;;;;;3.53;1.50;;;;;;;26.05;42.63;97020.50;8316649;28;20335;-64
2021/08/07 09:08:29;;;;;;;3.43;1.53;;;;;;;24.83;44.90;97025.44;8316587;28;20207;-65
2021/08/07 09:13:08;;;;;;;3.23;1.50;;;;;;;25.24;44.20;97019.72;8315356;28;20214;-65
2021/08/07 09:17:37;;;;;;;4.97;2.03;;;;;;;24.53;45.23;97026.22;8315816;28;20268;-64
2021/08/07 09:22:17;;;;;;;3.80;1.60;;;;;;;24.75;45.37;97027.16;8314126;28;20240;-64
2021/08/07 09:26:43;;;;;;;5.67;1.60;;;;;;;23.96;47.12;97032.72;8316589;28;20414;-65
2021/08/07 09:31:09;;;;;;;5.57;2.07;;;;;;;24.08;47.57;97014.63;8315282;28;20272;-64
2021/08/07 09:35:37;;;;;;;4.73;1.67;;;;;;;24.09;47.42;97012.81;8315681;28;20202;-64
2021/08/07 09:40:01;;;;;;;2.87;1.40;;;;;;;24.35;47.88;96988.63;8322412;28;20509;-64
2021/08/07 09:44:45;;;;;;;7.00;1.40;;;;;;;24.51;47.79;96991.16;8321917;28;20228;-64
2021/08/07 09:49:06;;;;;;;3.43;1.33;;;;;;;25.10;46.99;96995.69;8318431;28;20214;-64
2021/08/07 09:53:33;;;;;;;2.80;1.60;;;;;;;25.53;45.03;97008.25;8321925;28;20590;-65
2021/08/07 09:58:11;;;;;;;3.63;1.60;;;;;;;26.02;44.61;97004.94;8319023;28;20223;-65
2021/08/07 10:02:32;;;;;;;3.37;1.70;;;;;;;25.63;43.15;96979.63;8320691;28;20422;-64
2021/08/07 10:06:49;;;;;;;10.63;2.20;;;;;;;25.48;43.58;96971.72;8352352;28;20213;-64
2021/08/07 10:11:33;;;;;;;6.53;1.60;;;;;;;25.80;42.63;96964.31;8352028;28;20241;-65
2021/08/07 10:16:04;;;;;;;4.37;1.70;;;;;;;25.97;42.51;96980.00;8352325;28;20268;-64
2021/08/07 10:20:34;;;;;;;2.97;1.50;;;;;;;25.19;43.88;96980.53;8352468;28;20529;-64
2021/08/07 10:24:57;;;;;;;3.70;1.60;;;;;;;25.12;44.76;96971.66;8348195;28;20232;-64
2021/08/07 10:29:29;;;;;;;4.83;1.60;;;;;;;24.87;43.76;96965.84;8353500;28;20210;-64
2021/08/07 10:33:43;;;;;;;3.33;1.60;;;;;;;24.88;43.96;96962.16;8317122;28;20388;-64
2021/08/07 10:37:59;;;;;;;6.63;1.60;;;;;;;24.56;43.83;96951.75;8302726;28;20363;-64
2021/08/07 10:42:12;;;;;;;4.27;1.57;;;;;;;24.51;45.12;96953.28;8287123;28;20227;-66
2021/08/07 10:46:40;;;;;;;5.30;1.70;;;;;;;24.35;45.50;96952.44;8286329;28;20206;-65
2021/08/07 10:50:50;;;;;;;2.57;1.53;;;;;;;24.34;45.83;96948.13;8303763;28;20203;-67
2021/08/07 10:55:00;;;;;;;4.97;1.70;;;;;;;24.31;44.78;96961.72;8315087;28;20247;-64
2021/08/07 10:59:23;;;;;;;7.27;1.80;;;;;;;24.38;45.24;96956.53;8312029;28;20484;-64
2021/08/07 11:03:43;;;;;;;3.17;1.40;;;;;;;24.27;45.03;96949.84;8314203;28;20416;-65
2021/08/07 11:08:17;;;;;;;4.23;1.80;;;;;;;23.98;45.65;96950.59;8316561;28;20201;-65
2021/08/07 11:12:54;;;;;;;3.60;1.53;;;;;;;24.09;45.65;96949.34;8317038;28;20201;-66
2021/08/07 11:17:34;;;;;;;6.43;1.77;;;;;;;23.63;47.07;96955.44;8313669;28;20398;-66
2021/08/07 11:22:02;;;;;;;3.17;1.67;;;;;;;23.92;46.77;96959.22;8313782;28;20236;-65
2021/08/07 11:26:15;;;;;;;3.10;1.63;;;;;;;24.01;47.12;96963.47;8315219;28;20225;-66
2021/08/07 11:30:39;;;;;;;4.03;1.77;;;;;;;23.97;46.88;96955.06;8316818;28;20213;-65
2021/08/07 11:34:54;;;;;;;3.43;1.70;;;;;;;24.02;47.81;96948.41;8316872;28;20402;-65
2021/08/07 11:39:18;;;;;;;5.77;1.80;;;;;;;23.95;48.14;96946.47;8314056;28;20215;-65
2021/08/07 11:43:45;;;;;;;5.17;2.20;;;;;;;23.73;46.88;96934.06;8315943;28;20230;-65
2021/08/07 11:48:14;;;;;;;2.97;1.60;;;;;;;23.77;48.29;96927.41;8312824;28;20384;-65
2021/08/07 11:52:38;;;;;;;4.20;1.80;;;;;;;23.68;48.12;96931.94;8316008;28;20228;-65
2021/08/07 11:56:54;;;;;;;5.07;1.87;;;;;;;23.66;49.16;96922.53;8310493;28;20226;-67
2021/08/07 12:01:07;;;;;;;2.80;1.53;;;;;;;23.46;51.00;96912.44;8303939;28;20194;-66
2021/08/07 12:05:35;;;;;;;4.33;1.63;;;;;;;23.58;50.93;96908.38;8317902;28;20430;-67
2021/08/07 12:10:14;;;;;;;3.77;1.60;;;;;;;23.41;52.36;96944.66;8317843;28;20203;-67
2021/08/07 12:14:37;;;;;;;5.57;2.00;;;;;;;23.18;54.12;96941.97;8317546;28;20224;-67
2021/08/07 12:18:50;;;;;;;3.27;1.93;;;;;;;23.14;54.53;96939.84;8317509;28;20229;-67
2021/08/07 12:23:08;;;;;;;3.23;1.87;;;;;;;23.01;55.59;96945.63;8317370;28;20233;-67
2021/08/07 12:27:18;;;;;;;3.67;2.23;;;;;;;22.96;57.22;96922.41;8317416;28;20420;-67
2021/08/07 12:32:01;;;;;;;5.73;2.13;;;;;;;22.66;57.79;96931.91;8316692;28;20208;-67
2021/08/07 12:36:28;;;;;;;4.30;1.63;;;;;;;22.70;58.78;96935.03;8316887;28;20512;-67
2021/08/07 12:41:08;;;;;;;4.27;2.40;;;;;;;22.63;59.64;96962.06;8317050;28;20431;-67
2021/08/07 12:45:24;;;;;;;4.90;1.93;;;;;;;22.21;59.08;96988.66;8310248;28;20231;-67
2021/08/07 12:49:59;;;;;;;4.67;2.13;;;;;;;21.99;60.93;96988.31;8314648;28;20404;-68
2021/08/07 12:54:37;;;;;;;3.70;1.90;;;;;;;21.75;62.80;96999.66;8311200;28;20216;-67
2021/08/07 12:59:19;;;;;;;4.93;2.43;;;;;;;21.46;63.10;97006.16;8315273;28;20201;-67
2021/08/07 13:04:06;;;;;;;4.87;2.20;;;;;;;21.16;64.04;97002.22;8316748;28;20236;-67
2021/08/07 13:08:36;;;;;;;5.13;2.03;;;;;;;21.16;65.17;97004.88;8314343;28;20371;-66
2021/08/07 13:12:51;;;;;;;6.93;2.90;;;;;;;21.18;64.83;96986.28;8321166;28;20530;-66
2021/08/07 13:17:14;;;;;;;4.73;2.60;;;;;;;21.12;65.99;96987.75;8322952;28;20379;-67
2021/08/07 13:21:45;;;;;;;5.90;2.67;;;;;;;21.02;66.26;96979.97;8322737;28;20225;-66
2021/08/07 13:26:11;;;;;;;5.37;2.60;;;;;;;21.20;65.51;96953.53;8321975;28;20212;-67
2021/08/07 13:30:52;;;;;;;5.63;2.70;;;;;;;21.27;65.86;96951.09;8317454;28;20217;-66
2021/08/07 13:35:21;;;;;;;3.73;2.70;;;;;;;21.36;65.26;96959.84;8321540;28;20205;-67
2021/08/07 13:39:44;;;;;;;8.90;2.97;;;;;;;21.10;65.86;96958.13;8320644;28;20214;-66
2021/08/07 13:44:18;;;;;;;5.53;2.50;;;;;;;21.21;65.65;96964.88;8320828;28;20227;-66
2021/08/07 13:48:37;;;;;;;8.83;2.67;;;;;;;21.26;65.74;96973.97;8318944;28;20209;-66
2021/08/07 13:53:10;;;;;;;5.07;2.50;;;;;;;21.08;66.07;96987.22;8321982;28;20211;-67
2021/08/07 13:57:34;;;;;;;4.80;2.47;;;;;;;20.97;66.63;96984.88;8321673;28;20572;-67
2021/08/07 14:02:01;;;;;;;6.23;2.57;;;;;;;21.11;66.11;96980.81;8321261;28;20205;-67
2021/08/07 14:06:24;;;;;;;3.40;2.50;;;;;;;21.12;66.40;96986.91;8320808;28;20207;-67
2021/08/07 14:10:53;;;;;;;4.37;2.77;;;;;;;21.27;65.55;96977.44;8321304;28;20308;-67
2021/08/07 14:15:17;;;;;;;5.67;2.70;;;;;;;21.28;66.04;96976.44;8319655;28;20599;-66
2021/08/07 14:19:27;;;;;;;3.47;2.30;;;;;;;21.36;63.88;96981.75;8318389;28;20570;-65
2021/08/07 14:23:36;;;;;;;4.23;2.43;;;;;;;21.41;64.39;96989.16;8314764;28;20268;-65
2021/08/07 14:27:55;;;;;;;5.00;2.37;;;;;;;21.51;63.52;97002.22;8318838;28;20204;-66
2021/08/07 14:32:15;;;;;;;4.03;2.57;;;;;;;21.53;63.59;97021.31;8316434;28;20203;-67
2021/08/07 14:36:23;;;;;;;12.37;3.30;;;;;;;21.53;64.88;97031.84;8319006;28;20489;-67
2021/08/07 14:40:44;;;;;;;8.60;3.10;;;;;;;21.48;65.12;97034.97;8319208;28;20200;-68
2021/08/07 14:45:00;;;;;;;5.20;2.67;;;;;;;21.53;65.06;97037.94;8317699;28;20560;-68
2021/08/07 14:49:10;;;;;;;8.83;2.50;;;;;;;21.45;64.78;97043.19;8318094;28;20205;-68
2021/08/07 14:53:14;;;;;;;5.80;2.87;;;;;;;21.28;65.99;97042.25;8318821;28;20219;-69
2021/08/07 14:57:37;;;;;;;7.77;3.13;;;;;;;20.85;66.85;97044.84;8314365;28;20295;-69
2021/08/07 15:01:58;;;;;;;6.10;2.73;;;;;;;20.99;67.57;97043.44;8318511;28;20379;-68
2021/08/07 15:06:28;;;;;;;6.03;2.70;;;;;;;20.91;67.43;97045.22;8317406;28;20263;-66
2021/08/07 15:10:41;;;;;;;6.27;3.00;;;;;;;21.00;66.78;97042.47;8314630;28;20196;-68
2021/08/07 15:14:54;;;;;;;11.30;3.00;;;;;;;20.48;68.77;97042.41;8308528;28;20485;-68
2021/08/07 15:19:11;;;;;;;6.13;2.90;;;;;;;20.76;67.84;97037.06;8300050;28;20246;-68
2021/08/07 15:23:25;;;;;;;5.50;2.67;;;;;;;20.87;67.09;97011.31;8310575;28;20445;-68
2021/08/07 15:27:53;;;;;;;5.30;2.97;;;;;;;20.58;67.89;97045.78;8318023;28;20279;-69
2021/08/07 15:32:03;;;;;;;4.43;2.27;;;;;;;20.74;67.35;97045.09;8318876;28;20235;-67
2021/08/07 15:36:25;;;;;;;8.10;2.40;;;;;;;20.55;66.96;97058.41;8318047;28;20209;-68
2021/08/07 15:40:48;;;;;;;4.63;2.40;;;;;;;20.32;67.92;97045.75;8317554;28;20201;-70
2021/08/07 15:44:57;;;;;;;4.43;2.73;;;;;;;20.63;67.15;97053.25;8317973;28;20228;-70
2021/08/07 15:49:06;;;;;;;4.37;2.23;;;;;;;20.28;67.45;97053.09;8318305;28;20205;-69
2021/08/07 15:53:25;;;;;;;4.07;2.43;;;;;;;20.37;67.11;97048.75;8318147;28;20408;-69
2021/08/07 15:57:41;;;;;;;6.67;2.23;;;;;;;20.25;66.65;97061.28;8317906;28;20253;-69
2021/08/07 16:01:49;;;;;;;3.60;2.47;;;;;;;20.36;66.75;97062.84;8318125;28;20504;-69
2021/08/07 16:05:57;;;;;;;6.63;2.73;;;;;;;20.39;66.43;97073.09;8318078;28;20238;-79
2021/08/07 16:10:11;;;;;;;4.47;2.50;;;;;;;20.19;66.56;97079.47;8317878;28;20203;-74
2021/08/07 16:14:22;;;;;;;4.97;2.70;;;;;;;19.96;67.68;97093.03;8317213;28;20237;-70
2021/08/07 16:18:29;;;;;;;3.30;2.60;;;;;;;20.22;66.94;97100.19;8317576;28;20539;-70
2021/08/07 16:22:40;;;;;;;3.60;2.20;;;;;;;20.16;66.97;97098.16;8317626;28;20266;-70
2021/08/07 16:27:01;;;;;;;6.07;3.70;;;;;;;20.15;67.08;97088.63;8317415;28;20225;-70
2021/08/07 16:31:13;;;;;;;2.93;2.33;;;;;;;19.68;68.20;97066.75;8317760;28;20205;-70
2021/08/07 16:35:29;;;;;;;6.17;2.60;;;;;;;19.44;69.13;97003.44;8318345;28;20205;-70
2021/08/07 16:39:48;;;;;;;3.13;2.03;;;;;;;19.22;68.88;97004.69;8318125;28;20287;-67
2021/08/07 16:44:01;;;;;;;4.00;2.10;;;;;;;19.40;68.86;97015.22;8315211;28;20397;-67
2021/08/07 16:48:13;;;;;;;4.83;2.40;;;;;;;19.10;70.25;96988.31;8316576;28;20264;-67
2021/08/07 16:52:35;;;;;;;5.23;2.73;;;;;;;18.80;71.44;96992.84;8317001;28;20287;-67
2021/08/07 16:56:50;;;;;;;5.50;2.50;;;;;;;19.27;69.84;97010.34;8316588;28;20414;-68
2021/08/07 17:01:13;;;;;;;4.27;2.57;;;;;;;19.42;69.20;97015.91;8316754;28;20208;-67
2021/08/07 17:05:28;;;;;;;3.07;2.30;;;;;;;19.64;68.21;97027.81;8316996;28;20296;-68
2021/08/07 17:09:45;;;;;;;4.47;2.40;;;;;;;19.67;67.97;97028.34;8316759;28;20212;-67
2021/08/07 17:14:06;;;;;;;3.37;2.20;;;;;;;19.49;68.55;96988.91;8316264;28;20251;-68
2021/08/07 17:18:28;;;;;;;5.00;2.60;;;;;;;19.26;69.35;96978.00;8316383;28;20618;-67
2021/08/07 17:22:35;;;;;;;4.87;2.63;;;;;;;19.38;69.05;97028.53;8316622;28;20427;-67
2021/08/07 17:26:47;;;;;;;7.57;2.70;;;;;;;19.61;68.38;97057.84;8315641;28;20225;-67
2021/08/07 17:31:03;;;;;;;4.83;2.37;;;;;;;19.47;68.86;97030.25;8316657;28;20201;-68
2021/08/07 17:35:18;;;;;;;5.33;3.10;;;;;;;19.07;70.81;97013.03;8316331;28;20206;-67
2021/08/07 17:39:34;;;;;;;5.00;2.87;;;;;;;19.27;69.61;97019.03;8316115;28;20209;-67
2021/08/07 17:43:46;;;;;;;5.03;2.20;;;;;;;19.26;69.41;97014.75;8315640;28;20236;-67
2021/08/07 17:47:59;;;;;;;4.27;2.07;;;;;;;19.19;69.60;97005.81;8315407;28;20212;-67
2021/08/07 17:52:11;;;;;;;6.20;2.10;;;;;;;19.10;69.39;97010.13;8305133;28;20193;-68
2021/08/07 17:56:23;;;;;;;2.77;1.90;;;;;;;19.13;69.05;97014.25;8298015;28;20252;-71
2021/08/07 18:05:50;;;;;;;7.83;2.20;;;;;;;19.29;67.98;97055.63;8321076;28;20239;-70
2021/08/07 18:09:54;;;;;;;2.63;1.87;;;;;;;19.27;68.34;97053.16;8321539;28;20487;-71
2021/08/07 18:13:57;;;;;;;4.27;1.90;;;;;;;19.32;67.56;97029.09;8321364;28;20505;-71
2021/08/07 18:18:00;;;;;;;5.33;1.93;;;;;;;19.45;67.52;97023.50;8321080;28;20261;-70
2021/08/07 18:22:03;;;;;;;2.60;1.73;;;;;;;19.50;67.15;97040.47;8321157;28;20272;-71
2021/08/07 18:26:08;;;;;;;2.77;1.50;;;;;;;19.45;67.50;97039.25;8320585;28;20430;-70
2021/08/07 18:30:11;;;;;;;3.30;2.00;;;;;;;19.36;67.50;97038.31;8320568;28;20204;-71
2021/08/07 18:34:15;;;;;;;4.90;2.37;;;;;;;19.36;67.76;97037.50;8320756;28;20500;-70
2021/08/07 18:38:18;;;;;;;4.67;2.03;;;;;;;19.39;67.57;97047.72;8332690;28;20204;-70
2021/08/07 18:42:22;;;;;;;3.17;2.30;;;;;;;19.43;67.66;97039.38;8339803;28;20199;-70
2021/08/07 18:46:25;;;;;;;4.00;2.77;;;;;;;19.10;68.45;97033.75;8323193;28;20225;-70
2021/08/07 18:50:28;;;;;;;3.33;2.63;;;;;;;19.31;67.70;97043.19;8322705;28;20221;-71
2021/08/07 18:54:31;;;;;;;6.50;2.17;;;;;;;19.34;67.50;97042.88;8320182;28;20226;-70
2021/08/07 18:58:35;;;;;;;5.17;1.83;;;;;;;19.13;67.53;97045.72;8326933;28;20197;-69
2021/08/07 19:02:38;;;;;;;2.47;1.47;;;;;;;19.19;67.78;97049.59;8333264;28;20212;-70
2021/08/07 19:06:42;;;;;;;2.60;1.87;;;;;;;19.19;67.87;97074.06;8328041;28;20290;-69
2021/08/07 19:10:47;;;;;;;4.97;2.07;;;;;;;19.22;67.72;97078.19;8341497;28;20203;-70
2021/08/07 19:14:52;;;;;;;3.90;1.93;;;;;;;19.15;67.48;97067.41;8352480;28;20394;-69
2021/08/07 19:18:55;;;;;;;4.33;1.83;;;;;;;19.22;67.43;97068.50;8331713;28;20226;-69
2021/08/07 19:22:58;;;;;;;3.90;1.77;;;;;;;19.10;68.03;97077.53;8318246;28;20254;-70
2021/08/07 19:27:01;;;;;;;3.87;1.83;;;;;;;19.24;67.18;97107.72;8318171;28;20225;-68
2021/08/07 19:31:05;;;;;;;4.87;1.70;;;;;;;19.01;68.01;97118.56;8318057;28;20197;-70
2021/08/07 19:35:09;;;;;;;5.47;1.77;;;;;;;19.09;67.31;97123.91;8318193;28;20200;-69
2021/08/07 19:39:12;;;;;;;4.20;1.70;;;;;;;19.03;67.57;97121.88;8318154;28;20301;-69
2021/08/07 19:43:15;;;;;;;4.90;1.67;;;;;;;19.04;67.73;97115.66;8317850;28;20197;-68
2021/08/07 19:47:19;;;;;;;4.33;1.70;;;;;;;18.91;67.83;97126.44;8317609;28;20292;-68
2021/08/07 19:51:22;;;;;;;3.10;1.40;;;;;;;19.01;67.29;97128.22;8317831;28;20207;-68
2021/08/07 19:55:26;;;;;;;6.33;1.57;;;;;;;18.97;67.48;97098.00;8317888;28;20232;-69
2021/08/07 19:59:29;;;;;;;4.27;1.53;;;;;;;18.79;67.86;97085.59;8318057;28;20245;-69
2021/08/07 20:03:33;;;;;;;4.83;1.33;;;;;;;18.98;67.46;97097.84;8318069;28;20417;-68
2021/08/07 20:07:36;;;;;;;4.03;1.60;;;;;;;18.97;67.30;97069.97;8317965;28;20225;-68
2021/08/07 20:11:39;;;;;;;4.03;1.67;;;;;;;19.05;67.17;97080.56;8349651;28;20202;-68
2021/08/07 20:15:42;;;;;;;1.80;1.50;;;;;;;19.04;67.34;97088.56;8350404;28;20226;-68
2021/08/07 20:19:46;;;;;;;2.73;1.40;;;;;;;19.05;66.87;97090.25;8330629;28;20225;-68
2021/08/07 20:23:49;;;;;;;3.43;1.70;;;;;;;19.01;67.34;97115.13;8317393;28;20201;-69
2021/08/07 20:27:52;;;;;;;2.70;1.70;;;;;;;18.97;67.32;97100.63;8316028;28;20221;-69
2021/08/07 20:31:56;;;;;;;2.23;1.50;;;;;;;18.85;67.65;97116.53;8317055;28;20417;-69